< < Back
Terminal Aerodrome Forecast


Current Version              Previous Versions:   1  2  3  4  5  6  7  8  9  

Terminal Aerodrome Forecast

417
FTUS42 KCHS 030104 AAA
TAFSAV
TAF AMD
KSAV 030104Z 0301/0324 18006KT P6SM VCTS SCT015 SCT040CB BKN150
      TEMPO 0301/0304 VRB15G20KT 6SM -TSRA BKN015 BKN035CB
     FM030500 21006KT 6SM BR SCT010 BKN035
     FM031300 24010KT P6SM VCSH SCT025 BKN050
     FM031600 24012G18KT 6SM -SHRA VCTS SCT025CB BKN050
     FM032100 24012KT P6SM VCTS SCT025CB SCT060 BKN150=

Latest METAR

240
SAUS80 KWBC 031000 RRA
MTRSAV
METAR KSAV 030953Z 21007KT 10SM FEW010 SCT120 BKN250 22/21 A2989 RMK AO2
SLP119 FIRST AUGMENTED OBSERVATION T02220206


USA.gov is the U.S. government's official web portal to all federal, state and local government web resources and services.